Teixeira de Freitas, Brazil
Current Conditions -  °F | °C
As of 8:00 PM on Saturday 20 Dec 2014 (Local Time) from SBPS Reporting Station
Scattered Clouds Scattered Clouds  
Wind Chill: 77°   Ceiling: Unl
Heat Index: 78°   Visibility: 6mi
Dew Point: 75°   Wind: 9mph
Humidity: 94%   Direction: 40°NE
Pressure: 29.94"   Gusts: NA
Location:  17.54°S, 39.74°W
Report Text: SBPS 202300Z 04008KT 9999 FEW009 SCT020 25/24 Q1014
Loading
Personal Weather Stations






























Interactive Weather Map New forecast layout! Learn more

10-Day Weather Forecast

Advertisements
Track Severe Weather on mobile